Time;durP1;ratioP1;P1;durP2;ratioP2;P2;SDS_P1;SDS_P2;PMS_P1;PMS_P2;Temp;Humidity;BMP_temperature;BMP_pressure;BME280_temperature;BME280_humidity;BME280_pressure;Samples;Min_cycle;Max_cycle;Signal;HPM_P1;HPM_P2
2024/03/19 00:00:14;;;;;;;23.55;11.02;;;;;;;;;;4406265;32;20282;-77
2024/03/19 00:02:40;;;;;;;21.70;10.52;;;;;;;;;;4420148;32;20026;-76
2024/03/19 00:05:08;;;;;;;17.48;11.88;;;;;;;;;;4421656;32;20312;-76
2024/03/19 00:07:34;;;;;;;19.15;11.30;;;;;;;;;;4421365;32;20059;-77
2024/03/19 00:09:59;;;;;;;;;;;;;;;;;;4406112;32;20034;-78
2024/03/19 00:12:24;;;;;;;20.33;10.27;;;;;;;;;;4420403;32;20010;-77
2024/03/19 00:14:49;;;;;;;;;;;;;;;;;;4406103;32;20118;-77
2024/03/19 00:17:14;;;;;;;17.23;10.52;;;;;;;;;;4420649;32;20032;-78
2024/03/19 00:19:39;;;;;;;24.60;9.80;;;;;;;;;;4421994;32;20056;-77
2024/03/19 00:22:05;;;;;;;16.30;10.00;;;;;;;;;;4419693;32;20023;-76
2024/03/19 00:24:31;;;;;;;20.90;10.38;;;;;;;;;;4420172;32;20449;-76
2024/03/19 00:26:56;;;;;;;15.38;9.93;;;;;;;;;;4419654;32;20133;-77
2024/03/19 00:29:21;;;;;;;17.60;8.98;;;;;;;;;;4406499;32;20053;-77
2024/03/19 00:31:46;;;;;;;17.50;9.93;;;;;;;;;;4421608;32;20034;-77
2024/03/19 00:34:12;;;;;;;18.00;9.40;;;;;;;;;;4407559;32;20038;-76
2024/03/19 00:36:37;;;;;;;17.30;9.77;;;;;;;;;;4419897;32;20030;-75
2024/03/19 00:39:06;;;;;;;;;;;;;;;;;;4421259;32;20097;-76
2024/03/19 00:41:32;;;;;;;17.48;9.27;;;;;;;;;;4405564;32;19970;-76
2024/03/19 00:43:58;;;;;;;;;;;;;;;;;;4419802;32;20030;-77
2024/03/19 00:46:23;;;;;;;21.42;10.18;;;;;;;;;;4405679;32;19944;-77
2024/03/19 00:48:48;;;;;;;;;;;;;;;;;;4421198;32;20034;-76
2024/03/19 00:51:14;;;;;;;16.70;8.70;;;;;;;;;;4405596;32;19969;-76
2024/03/19 00:53:39;;;;;;;18.55;9.18;;;;;;;;;;4405778;32;20053;-76
2024/03/19 00:56:06;;;;;;;16.67;8.90;;;;;;;;;;4421252;32;20065;-76
2024/03/19 00:58:32;;;;;;;17.42;9.52;;;;;;;;;;4423638;32;20109;-77
2024/03/19 01:00:57;;;;;;;16.35;8.45;;;;;;;;;;4424115;32;20030;-77
2024/03/19 01:03:22;;;;;;;;;;;;;;;;;;4410217;32;20052;-76
2024/03/19 01:05:48;;;;;;;15.02;9.25;;;;;;;;;;4424383;32;19951;-76
2024/03/19 01:08:13;;;;;;;17.65;9.20;;;;;;;;;;4422526;32;20034;-76
2024/03/19 01:10:38;;;;;;;18.87;9.50;;;;;;;;;;4408693;32;20120;-77
2024/03/19 01:13:05;;;;;;;;;;;;;;;;;;4424093;32;20450;-76
2024/03/19 01:15:31;;;;;;;12.80;8.37;;;;;;;;;;4410301;32;20321;-77
2024/03/19 01:17:56;;;;;;;;;;;;;;;;;;4410451;32;20129;-77
2024/03/19 01:20:21;;;;;;;13.02;8.60;;;;;;;;;;4408652;32;19964;-77
2024/03/19 01:22:47;;;;;;;15.07;9.30;;;;;;;;;;4408527;32;20415;-76
2024/03/19 01:25:12;;;;;;;16.92;8.90;;;;;;;;;;4410609;32;20025;-77
2024/03/19 01:27:38;;;;;;;16.00;8.73;;;;;;;;;;4410438;32;20030;-77
2024/03/19 01:30:03;;;;;;;20.33;9.10;;;;;;;;;;4424713;32;20078;-77
2024/03/19 01:32:29;;;;;;;16.75;9.70;;;;;;;;;;4415668;32;20153;-77
2024/03/19 01:34:54;;;;;;;15.55;9.02;;;;;;;;;;4414115;32;20061;-77
2024/03/19 01:37:20;;;;;;;15.25;10.32;;;;;;;;;;4410381;32;20096;-78
2024/03/19 01:39:45;;;;;;;23.87;9.18;;;;;;;;;;4423789;32;20026;-79
2024/03/19 01:42:12;;;;;;;15.35;9.65;;;;;;;;;;4410015;32;20026;-77
2024/03/19 01:44:37;;;;;;;18.30;9.57;;;;;;;;;;4424046;32;20053;-77
2024/03/19 01:47:02;;;;;;;;;;;;;;;;;;4424134;32;20095;-77
2024/03/19 01:49:29;;;;;;;22.45;9.05;;;;;;;;;;4421982;32;19949;-77
2024/03/19 01:51:55;;;;;;;14.23;8.02;;;;;;;;;;4421766;32;20116;-76
2024/03/19 01:54:20;;;;;;;;;;;;;;;;;;4410039;32;20057;-76
2024/03/19 01:56:45;;;;;;;13.88;8.35;;;;;;;;;;4409382;32;19992;-77
2024/03/19 01:59:11;;;;;;;17.92;9.43;;;;;;;;;;4421840;32;20030;-76
2024/03/19 02:01:37;;;;;;;;;;;;;;;;;;4421859;32;20114;-76
2024/03/19 02:04:02;;;;;;;15.23;8.75;;;;;;;;;;4421541;32;19948;-77
2024/03/19 02:06:27;;;;;;;19.40;8.50;;;;;;;;;;4407901;32;20014;-76
2024/03/19 02:08:52;;;;;;;;;;;;;;;;;;4421433;32;20026;-77
2024/03/19 02:11:20;;;;;;;13.48;8.00;;;;;;;;;;4407817;32;19941;-76
2024/03/19 02:13:46;;;;;;;13.70;8.30;;;;;;;;;;4407776;32;20091;-76
2024/03/19 02:16:11;;;;;;;;;;;;;;;;;;4408428;32;20037;-76
2024/03/19 02:18:37;;;;;;;15.77;7.87;;;;;;;;;;4422841;32;19933;-77
2024/03/19 02:21:02;;;;;;;20.37;9.70;;;;;;;;;;4407769;32;20053;-77
2024/03/19 02:23:27;;;;;;;;;;;;;;;;;;4422557;32;20057;-77
2024/03/19 02:25:52;;;;;;;16.62;8.48;;;;;;;;;;4407602;32;20353;-77
2024/03/19 02:28:17;;;;;;;16.67;7.85;;;;;;;;;;4407419;32;20029;-75
2024/03/19 02:30:43;;;;;;;;;;;;;;;;;;4423814;32;20046;-76
2024/03/19 02:33:08;;;;;;;17.23;7.85;;;;;;;;;;4421172;32;19941;-77
2024/03/19 02:35:33;;;;;;;12.93;7.68;;;;;;;;;;4408367;32;20057;-77
2024/03/19 02:37:58;;;;;;;17.23;7.95;;;;;;;;;;4423500;32;20384;-77
2024/03/19 02:40:24;;;;;;;16.58;7.68;;;;;;;;;;4408816;32;20357;-77
2024/03/19 02:42:49;;;;;;;13.57;7.47;;;;;;;;;;4407618;32;20026;-78
2024/03/19 02:45:14;;;;;;;15.60;6.93;;;;;;;;;;4423628;32;20073;-77
2024/03/19 02:47:40;;;;;;;15.93;7.22;;;;;;;;;;4409026;32;20030;-77
2024/03/19 02:50:05;;;;;;;14.98;7.03;;;;;;;;;;4408187;32;20034;-77
2024/03/19 02:52:31;;;;;;;12.55;6.03;;;;;;;;;;4410971;32;20030;-76
2024/03/19 02:54:56;;;;;;;;;;;;;;;;;;4412658;32;20026;-76
2024/03/19 02:57:21;;;;;;;10.80;6.03;;;;;;;;;;4424194;32;19933;-77
2024/03/19 02:59:46;;;;;;;14.18;6.18;;;;;;;;;;4403418;32;20030;-77
2024/03/19 03:02:12;;;;;;;13.88;6.62;;;;;;;;;;4408012;32;20113;-77
2024/03/19 03:04:37;;;;;;;;;;;;;;;;;;4393520;32;20087;-77
2024/03/19 03:07:02;;;;;;;14.65;5.78;;;;;;;;;;4407886;32;19948;-79
2024/03/19 03:09:27;;;;;;;;;;;;;;;;;;4406727;32;20194;-77
2024/03/19 03:11:52;;;;;;;13.50;5.85;;;;;;;;;;4407337;32;19934;-75
2024/03/19 03:14:17;;;;;;;;;;;;;;;;;;4407615;32;20163;-78
2024/03/19 03:16:43;;;;;;;14.30;5.57;;;;;;;;;;4391960;32;19946;-77
2024/03/19 03:19:08;;;;;;;11.55;4.90;;;;;;;;;;4407587;32;20153;-76
2024/03/19 03:21:33;;;;;;;14.50;5.45;;;;;;;;;;4407054;32;20023;-77
2024/03/19 03:23:59;;;;;;;9.73;4.65;;;;;;;;;;4391879;32;20033;-77
2024/03/19 03:26:24;;;;;;;12.18;5.30;;;;;;;;;;4407135;32;20120;-77
2024/03/19 03:28:49;;;;;;;14.00;5.32;;;;;;;;;;4393445;32;20057;-75
2024/03/19 03:31:15;;;;;;;10.52;5.40;;;;;;;;;;4407257;32;20095;-76
2024/03/19 03:33:40;;;;;;;11.85;5.53;;;;;;;;;;4393396;32;20076;-77
2024/03/19 03:36:06;;;;;;;14.13;5.05;;;;;;;;;;4392113;32;20069;-76
2024/03/19 03:38:31;;;;;;;17.62;5.00;;;;;;;;;;4393957;32;20035;-78
2024/03/19 03:40:57;;;;;;;8.27;4.68;;;;;;;;;;4408145;32;20026;-78
2024/03/19 03:43:22;;;;;;;15.07;5.18;;;;;;;;;;4409607;32;20081;-77
2024/03/19 03:45:47;;;;;;;;;;;;;;;;;;4395678;32;20027;-77
2024/03/19 03:48:13;;;;;;;17.35;5.85;;;;;;;;;;4392257;32;20278;-77
2024/03/19 03:50:38;;;;;;;14.82;4.90;;;;;;;;;;4391767;32;20167;-77
2024/03/19 03:53:03;;;;;;;;;;;;;;;;;;4407094;32;20056;-77
2024/03/19 03:55:28;;;;;;;15.07;5.00;;;;;;;;;;4412540;32;19974;-78
2024/03/19 03:57:53;;;;;;;13.23;5.05;;;;;;;;;;4406341;32;20033;-78
2024/03/19 04:00:19;;;;;;;8.68;4.40;;;;;;;;;;4413329;32;20057;-78
2024/03/19 04:02:45;;;;;;;11.48;5.50;;;;;;;;;;4406605;32;20069;-77
2024/03/19 04:05:10;;;;;;;12.82;4.50;;;;;;;;;;4405331;32;20056;-77
2024/03/19 04:07:39;;;;;;;10.05;4.87;;;;;;;;;;4406457;32;20046;-77
2024/03/19 04:10:05;;;;;;;11.52;4.75;;;;;;;;;;4405046;32;20098;-78
2024/03/19 04:12:30;;;;;;;12.52;5.25;;;;;;;;;;4390711;32;20038;-77
2024/03/19 04:14:56;;;;;;;13.00;5.22;;;;;;;;;;4404794;32;20034;-78
2024/03/19 04:17:21;;;;;;;15.93;5.90;;;;;;;;;;4406075;32;20025;-77
2024/03/19 04:19:47;;;;;;;12.15;5.07;;;;;;;;;;4392395;32;20034;-77
2024/03/19 04:22:12;;;;;;;15.90;5.95;;;;;;;;;;4405299;32;20026;-78
2024/03/19 04:24:37;;;;;;;11.45;5.53;;;;;;;;;;4392426;32;20423;-78
2024/03/19 04:27:03;;;;;;;11.93;5.53;;;;;;;;;;4391134;32;20064;-77
2024/03/19 04:29:28;;;;;;;14.55;5.72;;;;;;;;;;4405345;32;20321;-78
2024/03/19 04:31:53;;;;;;;;;;;;;;;;;;4405055;32;20030;-77
2024/03/19 04:34:18;;;;;;;8.98;5.18;;;;;;;;;;4404507;32;19999;-77
2024/03/19 04:36:43;;;;;;;;;;;;;;;;;;4390693;32;20157;-78
2024/03/19 04:39:13;;;;;;;13.23;6.07;;;;;;;;;;4405212;32;19948;-79
2024/03/19 04:41:39;;;;;;;11.27;6.28;;;;;;;;;;4405179;32;20030;-76
2024/03/19 04:44:05;;;;;;;13.48;5.22;;;;;;;;;;4390870;32;20121;-77
2024/03/19 04:46:30;;;;;;;16.92;5.45;;;;;;;;;;4404712;32;20374;-77
2024/03/19 04:48:55;;;;;;;14.27;5.53;;;;;;;;;;4390451;32;20033;-77
2024/03/19 04:51:21;;;;;;;10.13;5.28;;;;;;;;;;4390999;32;20053;-77
2024/03/19 04:53:46;;;;;;;12.50;5.57;;;;;;;;;;4392019;32;20386;-78
2024/03/19 04:56:12;;;;;;;8.70;4.65;;;;;;;;;;4391489;32;20171;-77
2024/03/19 04:58:37;;;;;;;9.18;5.18;;;;;;;;;;4390505;32;20031;-77
2024/03/19 05:01:03;;;;;;;12.52;4.72;;;;;;;;;;4403302;32;20464;-76
2024/03/19 05:03:28;;;;;;;13.88;5.40;;;;;;;;;;4405495;32;20157;-77
2024/03/19 05:05:53;;;;;;;12.07;5.45;;;;;;;;;;4406097;32;20057;-78
2024/03/19 05:08:18;;;;;;;;;;;;;;;;;;4407081;32;20029;-77
2024/03/19 05:10:44;;;;;;;11.12;4.87;;;;;;;;;;4419260;32;19941;-76
2024/03/19 05:13:09;;;;;;;;;;;;;;;;;;4391843;32;20476;-78
2024/03/19 05:15:34;;;;;;;12.52;5.25;;;;;;;;;;4389138;32;19983;-77
2024/03/19 05:18:00;;;;;;;10.88;4.90;;;;;;;;;;4389174;32;20444;-78
2024/03/19 05:20:25;;;;;;;13.25;5.03;;;;;;;;;;4387210;32;20057;-77
2024/03/19 05:22:50;;;;;;;;;;;;;;;;;;4388904;32;20420;-76
2024/03/19 05:25:16;;;;;;;11.25;6.40;;;;;;;;;;4387670;32;19973;-78
2024/03/19 05:27:41;;;;;;;;;;;;;;;;;;4389298;32;20153;-77
2024/03/19 05:30:09;;;;;;;17.20;5.65;;;;;;;;;;4387467;32;19940;-78
2024/03/19 05:32:35;;;;;;;13.57;5.85;;;;;;;;;;4387349;32;20070;-78
2024/03/19 05:35:00;;;;;;;14.32;5.47;;;;;;;;;;4388791;32;20061;-77
2024/03/19 05:37:27;;;;;;;13.55;5.78;;;;;;;;;;4388465;32;20031;-77
2024/03/19 05:39:52;;;;;;;10.73;6.40;;;;;;;;;;4388759;32;20023;-78
2024/03/19 05:42:17;;;;;;;;;;;;;;;;;;4388655;32;20026;-78
2024/03/19 05:44:43;;;;;;;12.07;6.53;;;;;;;;;;4390588;32;20304;-76
2024/03/19 05:47:08;;;;;;;11.90;6.78;;;;;;;;;;4390285;32;20026;-78
2024/03/19 05:49:33;;;;;;;17.30;7.57;;;;;;;;;;4390852;32;20194;-77
2024/03/19 05:51:59;;;;;;;16.23;7.20;;;;;;;;;;4394303;32;20026;-77
2024/03/19 05:54:24;;;;;;;18.95;7.18;;;;;;;;;;4402165;32;20034;-78
2024/03/19 05:56:49;;;;;;;;;;;;;;;;;;4395650;32;20023;-78
2024/03/19 05:59:14;;;;;;;12.80;7.35;;;;;;;;;;4392223;32;20364;-78
2024/03/19 06:01:39;;;;;;;13.00;6.80;;;;;;;;;;4390893;32;20043;-78
2024/03/19 06:04:05;;;;;;;;;;;;;;;;;;4392117;32;20062;-78
2024/03/19 06:06:30;;;;;;;13.57;7.60;;;;;;;;;;4388873;32;19953;-77
2024/03/19 06:08:55;;;;;;;14.13;8.02;;;;;;;;;;4376370;32;20030;-77
2024/03/19 06:11:21;;;;;;;14.65;8.57;;;;;;;;;;4375388;32;20057;-75
2024/03/19 06:13:46;;;;;;;15.00;8.32;;;;;;;;;;4392825;32;20305;-76
2024/03/19 06:16:11;;;;;;;;;;;;;;;;;;4415262;32;20041;-76
2024/03/19 06:18:37;;;;;;;16.42;7.57;;;;;;;;;;4421716;32;19947;-76
2024/03/19 06:21:02;;;;;;;;;;;;;;;;;;4408374;32;20125;-77
2024/03/19 06:23:27;;;;;;;14.23;8.27;;;;;;;;;;4408266;32;19999;-79
2024/03/19 06:25:53;;;;;;;18.52;10.30;;;;;;;;;;4406635;32;20407;-75
2024/03/19 06:28:18;;;;;;;14.57;9.18;;;;;;;;;;4407326;32;20027;-77
2024/03/19 06:30:43;;;;;;;16.35;9.85;;;;;;;;;;4393461;32;20018;-77
2024/03/19 06:33:08;;;;;;;16.37;9.13;;;;;;;;;;4406901;32;20023;-77
2024/03/19 06:35:34;;;;;;;18.62;9.45;;;;;;;;;;4407008;32;20157;-77
2024/03/19 06:37:59;;;;;;;18.67;10.18;;;;;;;;;;4406740;32;20076;-78
2024/03/19 06:40:25;;;;;;;18.55;9.57;;;;;;;;;;4393719;32;20054;-78
2024/03/19 06:42:50;;;;;;;;;;;;;;;;;;4408153;32;20094;-78
2024/03/19 06:45:15;;;;;;;16.10;9.35;;;;;;;;;;4407654;32;20006;-78
2024/03/19 06:47:40;;;;;;;;;;;;;;;;;;4407320;32;20149;-77
2024/03/19 06:50:14;;;;;;;18.02;10.23;;;;;;;;;;4393930;32;19937;-78
2024/03/19 06:52:42;;;;;;;13.25;9.15;;;;;;;;;;4394754;32;20101;-78
2024/03/19 06:55:07;;;;;;;21.85;10.45;;;;;;;;;;4408027;32;20454;-77
2024/03/19 06:57:33;;;;;;;16.12;8.77;;;;;;;;;;4397313;32;20177;-76
2024/03/19 06:59:58;;;;;;;16.30;9.18;;;;;;;;;;4407517;32;20014;-77
2024/03/19 07:02:29;;;;;;;11.90;9.45;;;;;;;;;;4395689;32;20047;-78
2024/03/19 07:04:55;;;;;;;14.65;8.45;;;;;;;;;;4403676;32;20026;-77
2024/03/19 07:07:20;;;;;;;13.23;8.13;;;;;;;;;;4409052;32;20026;-77
2024/03/19 07:09:46;;;;;;;19.10;8.98;;;;;;;;;;4410409;32;20217;-78
2024/03/19 07:12:12;;;;;;;18.67;9.38;;;;;;;;;;4411351;32;20442;-78
2024/03/19 07:14:37;;;;;;;14.63;7.85;;;;;;;;;;4423605;32;20030;-77
2024/03/19 07:17:02;;;;;;;;;;;;;;;;;;4408644;32;20449;-78
2024/03/19 07:19:27;;;;;;;15.82;9.02;;;;;;;;;;4407426;32;20004;-78
2024/03/19 07:21:52;;;;;;;20.77;8.13;;;;;;;;;;4407798;32;20022;-77
2024/03/19 07:24:18;;;;;;;19.67;8.35;;;;;;;;;;4408331;32;20045;-77
2024/03/19 07:26:43;;;;;;;11.20;7.47;;;;;;;;;;4407855;32;20406;-77
2024/03/19 07:29:09;;;;;;;12.90;7.22;;;;;;;;;;4406874;32;20380;-78
2024/03/19 07:31:34;;;;;;;13.15;7.37;;;;;;;;;;4405152;32;20065;-77
2024/03/19 07:33:59;;;;;;;12.82;8.90;;;;;;;;;;4405889;32;20014;-77
2024/03/19 07:36:24;;;;;;;13.02;7.68;;;;;;;;;;4391933;32;20092;-78
2024/03/19 07:38:49;;;;;;;15.27;8.27;;;;;;;;;;4391433;32;20019;-78
2024/03/19 07:41:15;;;;;;;12.37;7.50;;;;;;;;;;4406604;32;20159;-77
2024/03/19 07:43:40;;;;;;;10.57;6.32;;;;;;;;;;4396471;32;20021;-79
2024/03/19 07:46:05;;;;;;;14.00;7.40;;;;;;;;;;4419818;32;20014;-77
2024/03/19 07:48:32;;;;;;;12.77;6.85;;;;;;;;;;4421216;32;20092;-78
2024/03/19 07:50:57;;;;;;;10.27;6.30;;;;;;;;;;4406495;32;20473;-78
2024/03/19 07:53:22;;;;;;;16.20;7.22;;;;;;;;;;4422071;32;20021;-76
2024/03/19 07:55:48;;;;;;;11.45;6.43;;;;;;;;;;4406144;32;20034;-77
2024/03/19 07:58:15;;;;;;;13.82;6.28;;;;;;;;;;4407631;32;20140;-77
2024/03/19 08:00:40;;;;;;;12.57;6.85;;;;;;;;;;4422666;32;20026;-77
2024/03/19 08:03:05;;;;;;;16.35;6.87;;;;;;;;;;4426816;32;20044;-76
2024/03/19 08:05:30;;;;;;;13.60;5.95;;;;;;;;;;4427982;32;20103;-76
2024/03/19 08:07:56;;;;;;;14.07;6.32;;;;;;;;;;4394841;32;20031;-76
2024/03/19 08:10:21;;;;;;;10.73;5.85;;;;;;;;;;4393707;32;20023;-76
2024/03/19 08:12:47;;;;;;;8.80;5.43;;;;;;;;;;4390985;32;20400;-77
2024/03/19 08:15:12;;;;;;;11.73;5.90;;;;;;;;;;4393635;32;20013;-76
2024/03/19 08:17:38;;;;;;;10.48;6.07;;;;;;;;;;4406319;32;20030;-76
2024/03/19 08:20:06;;;;;;;11.25;5.85;;;;;;;;;;4421499;32;20170;-76
2024/03/19 08:22:31;;;;;;;12.55;6.03;;;;;;;;;;4419994;32;20045;-76
2024/03/19 08:24:57;;;;;;;12.68;6.43;;;;;;;;;;4408000;32;20030;-75
2024/03/19 08:27:22;;;;;;;12.95;6.80;;;;;;;;;;4421307;32;20371;-77
2024/03/19 08:29:47;;;;;;;15.38;5.97;;;;;;;;;;4406516;32;20394;-76
2024/03/19 08:32:12;;;;;;;11.10;6.22;;;;;;;;;;4419981;32;20120;-77
2024/03/19 08:34:38;;;;;;;14.95;6.18;;;;;;;;;;4406192;32;20023;-76
2024/03/19 08:37:03;;;;;;;16.15;6.95;;;;;;;;;;4419597;32;20014;-77
2024/03/19 08:39:28;;;;;;;19.55;6.62;;;;;;;;;;4421412;32;20121;-76
2024/03/19 08:41:53;;;;;;;11.23;6.68;;;;;;;;;;4405530;32;20090;-77
2024/03/19 08:44:19;;;;;;;11.00;6.37;;;;;;;;;;4407094;32;20023;-77
2024/03/19 08:46:44;;;;;;;9.98;6.72;;;;;;;;;;4406595;32;20018;-76
2024/03/19 08:49:10;;;;;;;15.23;7.25;;;;;;;;;;4407466;32;20430;-77
2024/03/19 08:51:36;;;;;;;13.07;6.97;;;;;;;;;;4406405;32;20148;-77
2024/03/19 08:54:01;;;;;;;16.27;7.20;;;;;;;;;;4405139;32;20030;-76
2024/03/19 08:56:26;;;;;;;15.93;7.90;;;;;;;;;;4406040;32;20366;-76
2024/03/19 08:58:52;;;;;;;11.35;7.47;;;;;;;;;;4405089;32;20030;-78
2024/03/19 09:01:17;;;;;;;16.45;7.40;;;;;;;;;;4418423;32;20070;-76
2024/03/19 09:03:42;;;;;;;11.80;5.68;;;;;;;;;;4407513;32;20423;-76
2024/03/19 09:06:08;;;;;;;15.02;7.28;;;;;;;;;;4391146;32;20316;-78
2024/03/19 09:08:33;;;;;;;11.82;6.25;;;;;;;;;;4400817;32;20026;-77
2024/03/19 09:10:58;;;;;;;11.63;5.47;;;;;;;;;;4419560;32;20018;-78
2024/03/19 09:13:23;;;;;;;12.23;6.30;;;;;;;;;;4405314;32;20049;-77
2024/03/19 09:15:49;;;;;;;16.52;5.90;;;;;;;;;;4405494;32;20359;-77
2024/03/19 09:18:14;;;;;;;10.45;5.72;;;;;;;;;;4406063;32;20030;-78
2024/03/19 09:20:40;;;;;;;11.98;5.85;;;;;;;;;;4408484;32;20443;-77
2024/03/19 09:23:05;;;;;;;11.23;5.93;;;;;;;;;;4423382;32;20093;-78
2024/03/19 09:25:30;;;;;;;8.40;5.78;;;;;;;;;;4408611;32;20346;-77
2024/03/19 09:27:56;;;;;;;12.68;6.90;;;;;;;;;;4422459;32;20324;-78
2024/03/19 09:30:21;;;;;;;12.32;5.62;;;;;;;;;;4403939;32;20048;-77
2024/03/19 09:32:46;;;;;;;8.70;5.80;;;;;;;;;;4406952;32;20383;-77
2024/03/19 09:35:12;;;;;;;12.82;5.78;;;;;;;;;;4400138;32;20022;-78
2024/03/19 09:37:37;;;;;;;14.35;6.18;;;;;;;;;;4421963;32;20023;-78
2024/03/19 09:40:03;;;;;;;12.45;6.00;;;;;;;;;;4421714;32;20068;-77
2024/03/19 09:42:29;;;;;;;12.00;6.07;;;;;;;;;;4421799;32;20033;-78
2024/03/19 09:44:54;;;;;;;11.88;6.25;;;;;;;;;;4421466;32;20018;-78
2024/03/19 09:47:20;;;;;;;14.00;6.05;;;;;;;;;;4422139;32;20087;-78
2024/03/19 09:49:46;;;;;;;12.73;6.22;;;;;;;;;;4407700;32;20058;-77
2024/03/19 09:52:14;;;;;;;8.77;5.37;;;;;;;;;;4422381;32;20483;-76
2024/03/19 09:54:40;;;;;;;19.05;6.35;;;;;;;;;;4421666;32;20425;-78
2024/03/19 09:57:11;;;;;;;12.30;6.28;;;;;;;;;;4417607;32;20077;-78
2024/03/19 09:59:36;;;;;;;12.10;5.25;;;;;;;;;;4398101;32;20115;-77
2024/03/19 10:02:03;;;;;;;8.02;5.03;;;;;;;;;;4421082;32;20374;-78
2024/03/19 10:04:28;;;;;;;8.75;4.80;;;;;;;;;;4421429;32;20109;-78
2024/03/19 10:06:54;;;;;;;13.93;5.07;;;;;;;;;;4422596;32;20095;-77
2024/03/19 10:09:19;;;;;;;14.18;6.10;;;;;;;;;;4406831;32;20056;-77
2024/03/19 10:11:45;;;;;;;11.20;5.30;;;;;;;;;;4393441;32;20026;-77
2024/03/19 10:14:12;;;;;;;13.70;4.65;;;;;;;;;;4401101;32;20014;-77
2024/03/19 10:16:41;;;;;;;16.05;5.25;;;;;;;;;;4405096;32;20087;-78
2024/03/19 10:19:07;;;;;;;11.45;5.28;;;;;;;;;;4394400;32;20042;-77
2024/03/19 10:21:33;;;;;;;11.63;4.65;;;;;;;;;;4406830;32;20393;-77
2024/03/19 10:24:05;;;;;;;12.98;4.87;;;;;;;;;;4398989;32;20045;-76
2024/03/19 10:26:30;;;;;;;8.25;4.72;;;;;;;;;;4412101;32;20359;-77
2024/03/19 10:28:58;;;;;;;8.02;5.10;;;;;;;;;;4394038;32;20026;-77
2024/03/19 10:31:23;;;;;;;11.82;4.82;;;;;;;;;;4405467;32;20034;-77
2024/03/19 10:33:49;;;;;;;9.68;5.03;;;;;;;;;;4392245;32;20398;-77
2024/03/19 10:36:20;;;;;;;11.25;5.20;;;;;;;;;;4405673;32;20053;-77
2024/03/19 10:38:45;;;;;;;15.35;5.37;;;;;;;;;;4417304;32;20027;-78
2024/03/19 10:41:11;;;;;;;12.90;5.47;;;;;;;;;;4398868;32;20037;-77
2024/03/19 10:43:36;;;;;;;11.02;5.18;;;;;;;;;;4406831;32;20117;-78
2024/03/19 10:46:02;;;;;;;13.57;5.35;;;;;;;;;;4407162;32;20018;-78
2024/03/19 10:48:28;;;;;;;20.27;5.93;;;;;;;;;;4401317;32;20025;-78
2024/03/19 10:50:54;;;;;;;9.80;4.22;;;;;;;;;;4408615;32;20022;-77
2024/03/19 10:53:20;;;;;;;11.77;4.82;;;;;;;;;;4392686;32;20363;-78
2024/03/19 10:55:48;;;;;;;11.52;4.20;;;;;;;;;;4405297;32;20088;-77
2024/03/19 10:58:15;;;;;;;13.55;4.07;;;;;;;;;;4392330;32;20067;-79
2024/03/19 11:00:43;;;;;;;19.92;4.50;;;;;;;;;;4406589;32;20018;-78
2024/03/19 11:03:13;;;;;;;10.32;3.75;;;;;;;;;;4408395;32;20034;-78
2024/03/19 11:05:40;;;;;;;8.88;4.05;;;;;;;;;;4405899;32;20403;-77
2024/03/19 11:08:09;;;;;;;9.93;3.45;;;;;;;;;;4407899;32;20084;-76
2024/03/19 11:10:35;;;;;;;10.55;3.22;;;;;;;;;;4417917;32;20034;-77
2024/03/19 11:13:05;;;;;;;10.10;3.60;;;;;;;;;;4404905;32;20030;-78
2024/03/19 11:15:31;;;;;;;8.55;3.28;;;;;;;;;;4407535;32;20079;-78
2024/03/19 11:17:57;;;;;;;8.98;3.50;;;;;;;;;;4422824;32;20029;-78
2024/03/19 11:20:27;;;;;;;10.50;4.65;;;;;;;;;;4398280;32;20469;-79
2024/03/19 11:22:54;;;;;;;11.95;4.25;;;;;;;;;;4409575;32;20011;-76
2024/03/19 11:25:20;;;;;;;11.48;3.70;;;;;;;;;;4409650;32;20022;-79
2024/03/19 11:27:49;;;;;;;12.70;3.65;;;;;;;;;;4407112;32;20429;-77
2024/03/19 11:30:14;;;;;;;12.60;4.07;;;;;;;;;;4408109;32;20057;-78
2024/03/19 11:32:40;;;;;;;7.93;3.85;;;;;;;;;;4406044;32;20071;-78
2024/03/19 11:35:16;;;;;;;10.07;3.62;;;;;;;;;;4392506;32;20050;-77
2024/03/19 11:37:41;;;;;;;11.40;3.75;;;;;;;;;;4401459;32;20037;-77
2024/03/19 11:40:12;;;;;;;11.18;3.72;;;;;;;;;;4421002;32;20067;-77
2024/03/19 11:42:37;;;;;;;10.00;3.35;;;;;;;;;;4406174;32;20018;-77
2024/03/19 11:45:02;;;;;;;13.95;5.40;;;;;;;;;;4420456;32;20064;-77
2024/03/19 11:47:28;;;;;;;11.73;3.28;;;;;;;;;;4406302;32;20019;-76
2024/03/19 11:49:54;;;;;;;11.57;3.47;;;;;;;;;;4406447;32;20014;-79
2024/03/19 11:52:19;;;;;;;10.18;4.12;;;;;;;;;;4421764;32;20394;-78
2024/03/19 11:54:45;;;;;;;11.50;3.22;;;;;;;;;;4407513;32;20375;-78
2024/03/19 11:57:17;;;;;;;14.90;3.70;;;;;;;;;;4406281;32;20030;-77
2024/03/19 11:59:42;;;;;;;8.75;3.78;;;;;;;;;;4408220;32;20046;-77
2024/03/19 12:02:08;;;;;;;12.43;3.92;;;;;;;;;;4420138;32;20040;-78
2024/03/19 12:04:34;;;;;;;10.82;3.62;;;;;;;;;;4406605;32;20022;-77
2024/03/19 12:07:00;;;;;;;9.43;4.05;;;;;;;;;;4406246;32;20068;-77
2024/03/19 12:09:28;;;;;;;13.02;4.47;;;;;;;;;;4420011;32;20061;-77
2024/03/19 12:11:54;;;;;;;12.65;3.50;;;;;;;;;;4405622;32;20038;-78
2024/03/19 12:14:26;;;;;;;11.75;3.40;;;;;;;;;;4420968;32;20047;-78
2024/03/19 12:16:51;;;;;;;12.55;3.75;;;;;;;;;;4402431;32;20018;-77
2024/03/19 12:19:18;;;;;;;8.68;3.67;;;;;;;;;;4409975;32;20419;-78
2024/03/19 12:21:45;;;;;;;8.05;3.08;;;;;;;;;;4413965;32;20068;-77
2024/03/19 12:24:10;;;;;;;11.68;3.53;;;;;;;;;;4407256;32;20105;-77
2024/03/19 12:26:36;;;;;;;9.38;3.22;;;;;;;;;;4412780;32;20458;-77
2024/03/19 12:29:02;;;;;;;8.38;3.35;;;;;;;;;;4405499;32;20414;-78
2024/03/19 12:31:35;;;;;;;8.20;3.15;;;;;;;;;;4412398;32;20057;-78
2024/03/19 12:34:26;;;;;;;8.68;3.08;;;;;;;;;;4417065;32;20026;-78
2024/03/19 12:36:52;;;;;;;7.32;2.30;;;;;;;;;;4407587;32;20407;-77
2024/03/19 12:39:17;;;;;;;9.45;2.62;;;;;;;;;;4418144;32;20052;-79
2024/03/19 12:41:42;;;;;;;7.12;2.55;;;;;;;;;;4391121;32;20359;-77
2024/03/19 12:44:07;;;;;;;6.78;2.62;;;;;;;;;;4406717;32;20019;-78
2024/03/19 12:46:33;;;;;;;5.25;1.98;;;;;;;;;;4391472;32;20493;-77
2024/03/19 12:48:58;;;;;;;6.07;2.15;;;;;;;;;;4392426;32;20030;-78
2024/03/19 12:51:23;;;;;;;8.57;2.65;;;;;;;;;;4391252;32;20099;-78
2024/03/19 12:53:48;;;;;;;7.05;2.15;;;;;;;;;;4392461;32;20420;-77
2024/03/19 12:56:13;;;;;;;6.40;2.60;;;;;;;;;;4395733;32;20050;-76
2024/03/19 12:58:39;;;;;;;7.28;2.17;;;;;;;;;;4399420;32;20038;-77
2024/03/19 13:01:04;;;;;;;12.75;2.55;;;;;;;;;;4408806;32;20026;-76
2024/03/19 13:03:29;;;;;;;6.05;2.80;;;;;;;;;;4410828;32;20037;-77
2024/03/19 13:05:54;;;;;;;11.45;3.45;;;;;;;;;;4408525;32;20426;-78
2024/03/19 13:08:19;;;;;;;6.20;2.35;;;;;;;;;;4395012;32;20027;-78
2024/03/19 13:10:45;;;;;;;6.72;2.50;;;;;;;;;;4394135;32;20140;-79
2024/03/19 13:13:10;;;;;;;4.95;2.40;;;;;;;;;;4398476;32;20480;-79
2024/03/19 13:15:35;;;;;;;8.25;2.70;;;;;;;;;;4423453;32;20150;-79
2024/03/19 13:18:01;;;;;;;6.15;2.80;;;;;;;;;;4408830;32;20018;-78
2024/03/19 13:20:26;;;;;;;9.07;3.28;;;;;;;;;;4422463;32;20018;-79
2024/03/19 13:22:51;;;;;;;6.12;2.53;;;;;;;;;;4423820;32;20031;-79
2024/03/19 13:25:17;;;;;;;9.23;3.28;;;;;;;;;;4423966;32;20018;-79
2024/03/19 13:27:42;;;;;;;5.40;2.72;;;;;;;;;;4424015;32;20022;-79
2024/03/19 13:30:08;;;;;;;11.95;2.87;;;;;;;;;;4410106;32;20025;-78
2024/03/19 13:32:33;;;;;;;13.10;4.47;;;;;;;;;;4408754;32;20413;-79
2024/03/19 13:34:59;;;;;;;7.68;3.97;;;;;;;;;;4408723;32;20018;-79
2024/03/19 13:37:25;;;;;;;11.50;3.80;;;;;;;;;;4409770;32;20022;-78
2024/03/19 13:39:50;;;;;;;8.30;3.95;;;;;;;;;;4410343;32;20045;-80
2024/03/19 13:42:15;;;;;;;11.70;4.03;;;;;;;;;;4423084;32;20061;-78
2024/03/19 13:44:40;;;;;;;11.32;4.40;;;;;;;;;;4418512;32;20077;-78
2024/03/19 13:47:05;;;;;;;9.55;4.03;;;;;;;;;;4416151;32;20034;-79
2024/03/19 13:49:31;;;;;;;14.00;4.32;;;;;;;;;;4421837;32;20021;-78
2024/03/19 13:51:57;;;;;;;14.10;4.55;;;;;;;;;;4409541;32;20052;-77
2024/03/19 13:54:24;;;;;;;12.10;4.75;;;;;;;;;;4407978;32;20018;-79
2024/03/19 13:56:50;;;;;;;7.57;3.67;;;;;;;;;;4407645;32;20101;-79
2024/03/19 13:59:15;;;;;;;13.27;3.80;;;;;;;;;;4422477;32;20052;-78
2024/03/19 14:01:44;;;;;;;9.50;3.40;;;;;;;;;;4409055;32;20041;-79
2024/03/19 14:04:10;;;;;;;9.43;3.90;;;;;;;;;;4407096;32;20091;-79
2024/03/19 14:06:38;;;;;;;11.00;4.15;;;;;;;;;;4407247;32;20450;-78
2024/03/19 14:09:05;;;;;;;10.70;4.97;;;;;;;;;;4408443;32;20060;-78
2024/03/19 14:11:30;;;;;;;15.38;4.95;;;;;;;;;;4408090;32;20675;-77
2024/03/19 14:13:55;;;;;;;8.50;4.00;;;;;;;;;;4408440;32;20062;-78
2024/03/19 14:16:21;;;;;;;8.07;4.20;;;;;;;;;;4408677;32;20022;-78
2024/03/19 14:18:46;;;;;;;8.18;2.92;;;;;;;;;;4408055;32;20381;-78
2024/03/19 14:21:11;;;;;;;10.90;3.20;;;;;;;;;;4407843;32;20064;-77
2024/03/19 14:23:36;;;;;;;11.02;3.20;;;;;;;;;;4422384;32;20082;-77
2024/03/19 14:26:02;;;;;;;11.07;2.37;;;;;;;;;;4407355;32;20034;-79
2024/03/19 14:28:27;;;;;;;6.43;2.15;;;;;;;;;;4421509;32;20029;-78
2024/03/19 14:30:55;;;;;;;8.00;1.80;;;;;;;;;;4409151;32;20419;-79
2024/03/19 14:33:23;;;;;;;5.43;2.28;;;;;;;;;;4418155;32;20052;-78